Terminal Aerodrome Forecast
Issued by NWS

Current Version | Previous Version | Text Only | Print | Product List | Glossary Off
Versions: 1 2 3 4 5 6 7 8 9 10 11 12 13 14 15 16 17 18 19 20 21 22 23

000
FTUS41 KRLX 151100
TAFCKB
TAF
KCKB 151127Z 1512/1612 00000KT 5SM BR OVC011
     FM151600 00000KT P6SM BKN017
     FM151800 VRB03KT P6SM SCT250
     FM160700 16004KT 4SM -SHRA BKN035=

USA.gov is the U.S. government's official web portal to all federal, state and local government web resources and services.